createdAt,value
2017-10-23T00:01:12.740Z,7.57
2017-10-23T00:03:41.617Z,10.13
2017-10-23T00:06:10.468Z,8.00
2017-10-23T00:08:39.332Z,8.07
2017-10-23T00:11:08.328Z,8.50
2017-10-23T00:13:37.196Z,9.67
2017-10-23T00:16:06.050Z,10.93
2017-10-23T00:18:34.929Z,14.03
2017-10-23T00:21:03.818Z,8.93
2017-10-23T00:23:32.716Z,11.40
2017-10-23T00:26:01.571Z,9.87
2017-10-23T00:28:30.428Z,9.37
2017-10-23T00:30:59.314Z,10.63
2017-10-23T00:33:28.223Z,11.67
2017-10-23T00:35:57.100Z,11.13
2017-10-23T00:38:25.956Z,9.57
2017-10-23T00:40:54.823Z,10.50
2017-10-23T00:43:23.684Z,9.20
2017-10-23T00:45:52.552Z,10.20
2017-10-23T00:48:21.414Z,13.90
2017-10-23T00:50:50.283Z,11.03
2017-10-23T00:53:19.139Z,11.43
2017-10-23T00:55:48.007Z,9.70
2017-10-23T00:58:16.867Z,10.13
2017-10-23T01:00:45.741Z,10.73
2017-10-23T01:03:14.595Z,11.40
2017-10-23T01:05:43.464Z,10.63
2017-10-23T01:08:12.319Z,9.43
2017-10-23T01:10:41.220Z,10.30
2017-10-23T01:13:10.071Z,10.03
2017-10-23T01:15:38.928Z,9.63
2017-10-23T01:18:07.806Z,12.90
2017-10-23T01:20:36.665Z,10.27
2017-10-23T01:23:05.536Z,9.90
2017-10-23T01:25:34.392Z,9.50
2017-10-23T01:28:03.255Z,9.00
2017-10-23T01:30:32.112Z,10.60
2017-10-23T01:33:00.984Z,10.17
2017-10-23T01:35:29.841Z,9.93
2017-10-23T01:37:58.713Z,9.47
2017-10-23T01:40:27.571Z,9.70
2017-10-23T01:42:56.449Z,11.67
2017-10-23T01:45:25.304Z,9.33
2017-10-23T01:47:54.180Z,11.80
2017-10-23T01:50:23.032Z,9.07
2017-10-23T01:52:51.932Z,11.63
2017-10-23T01:55:20.794Z,10.70
2017-10-23T01:57:49.654Z,10.20
2017-10-23T02:00:18.520Z,9.33
2017-10-23T02:02:47.379Z,11.73
2017-10-23T02:05:16.256Z,11.70
2017-10-23T02:07:45.124Z,8.40
2017-10-23T02:10:13.993Z,9.57
2017-10-23T02:12:42.854Z,9.37
2017-10-23T02:15:11.741Z,8.43
2017-10-23T02:17:40.596Z,8.30
2017-10-23T02:20:09.469Z,8.53
2017-10-23T02:22:38.323Z,9.40
2017-10-23T02:25:07.196Z,8.93
2017-10-23T02:27:36.048Z,9.30
2017-10-23T02:30:04.929Z,8.90
2017-10-23T02:32:33.780Z,9.90
2017-10-23T02:35:02.648Z,8.67
2017-10-23T02:37:31.503Z,9.87
2017-10-23T02:40:00.362Z,9.13
2017-10-23T02:42:29.223Z,10.97
2017-10-23T02:44:58.086Z,11.10
2017-10-23T02:47:26.967Z,9.87
2017-10-23T02:49:55.828Z,9.80
2017-10-23T02:52:24.704Z,8.70
2017-10-23T02:54:53.560Z,8.63
2017-10-23T02:57:22.424Z,8.33
2017-10-23T02:59:51.279Z,9.77
2017-10-23T03:02:20.152Z,11.13
2017-10-23T03:04:49.003Z,8.30
2017-10-23T03:07:17.873Z,10.53
2017-10-23T03:09:46.724Z,7.73
2017-10-23T03:12:15.603Z,10.70
2017-10-23T03:14:44.455Z,9.57
2017-10-23T03:17:13.358Z,10.80
2017-10-23T03:19:42.211Z,8.80
2017-10-23T03:22:11.064Z,8.93
2017-10-23T03:24:39.951Z,11.97
2017-10-23T03:27:08.820Z,13.10
2017-10-23T03:29:37.694Z,12.10
2017-10-23T03:32:06.551Z,9.13
2017-10-23T03:34:35.429Z,11.93
2017-10-23T03:37:04.288Z,8.20
2017-10-23T03:39:33.156Z,9.37
2017-10-23T03:42:02.003Z,8.47
2017-10-23T03:44:30.878Z,7.77
2017-10-23T03:46:59.727Z,9.53
2017-10-23T03:49:28.620Z,12.63
2017-10-23T03:51:57.468Z,7.87
2017-10-23T03:54:26.344Z,11.53
2017-10-23T03:56:55.195Z,9.83
2017-10-23T03:59:24.068Z,11.63
2017-10-23T04:01:52.926Z,8.90
2017-10-23T04:04:21.804Z,9.37
2017-10-23T04:06:50.669Z,11.00
2017-10-23T04:09:19.555Z,9.83
2017-10-23T04:11:48.433Z,12.00
2017-10-23T04:14:17.283Z,10.00
2017-10-23T04:16:46.156Z,8.83
2017-10-23T04:19:15.022Z,12.70
2017-10-23T04:21:43.890Z,11.60
2017-10-23T04:24:12.752Z,11.47
2017-10-23T04:26:41.624Z,12.17
2017-10-23T04:29:10.472Z,9.33
2017-10-23T04:31:39.349Z,11.00
2017-10-23T04:34:08.223Z,11.40
2017-10-23T04:36:37.283Z,9.03
2017-10-23T04:39:06.140Z,16.33
2017-10-23T04:41:35.012Z,9.43
2017-10-23T04:44:03.881Z,11.00
2017-10-23T04:46:32.860Z,10.70
2017-10-23T04:49:01.730Z,11.30
2017-10-23T04:51:30.607Z,14.20
2017-10-23T04:53:59.464Z,10.00
2017-10-23T04:56:28.339Z,11.67
2017-10-23T04:58:57.202Z,12.77
2017-10-23T05:01:26.109Z,13.53
2017-10-23T05:03:54.960Z,13.20
2017-10-23T05:06:23.817Z,12.63
2017-10-23T05:08:52.696Z,13.10
2017-10-23T05:11:21.563Z,11.23
2017-10-23T05:13:50.448Z,11.97
2017-10-23T05:16:19.311Z,14.93
2017-10-23T05:18:48.191Z,12.97
2017-10-23T05:21:17.048Z,13.03
2017-10-23T05:23:45.920Z,11.50
2017-10-23T05:26:14.790Z,15.10
2017-10-23T05:28:43.695Z,11.83
2017-10-23T05:31:12.559Z,13.80
2017-10-23T05:33:41.437Z,15.93
2017-10-23T05:36:10.301Z,19.60
2017-10-23T05:38:39.180Z,15.83
2017-10-23T05:41:08.079Z,13.90
2017-10-23T05:43:36.983Z,13.80
2017-10-23T05:46:05.840Z,12.93
2017-10-23T05:48:34.699Z,11.97
2017-10-23T05:51:03.568Z,13.33
2017-10-23T05:53:32.425Z,12.60
2017-10-23T05:56:01.303Z,12.90
2017-10-23T05:58:30.174Z,13.70
2017-10-23T06:00:59.056Z,13.57
2017-10-23T06:03:27.919Z,13.47
2017-10-23T06:05:56.845Z,13.83
2017-10-23T06:08:25.716Z,14.80
2017-10-23T06:10:54.587Z,14.87
2017-10-23T06:13:23.443Z,14.27
2017-10-23T06:15:52.316Z,12.00
2017-10-23T06:18:21.176Z,14.63
2017-10-23T06:20:50.047Z,16.87
2017-10-23T06:23:18.907Z,15.27
2017-10-23T06:25:47.808Z,16.37
2017-10-23T06:28:16.671Z,15.73
2017-10-23T06:30:45.527Z,15.37
2017-10-23T06:33:14.400Z,13.37
2017-10-23T06:35:43.367Z,15.53
2017-10-23T06:38:12.243Z,14.80
2017-10-23T06:40:41.104Z,13.87
2017-10-23T06:43:09.987Z,14.63
2017-10-23T06:45:38.843Z,15.70
2017-10-23T06:48:07.719Z,14.80
2017-10-23T06:50:36.580Z,15.47
2017-10-23T06:53:05.461Z,14.80
2017-10-23T06:55:34.315Z,15.43
2017-10-23T06:58:03.187Z,15.50
2017-10-23T07:00:32.045Z,16.00
2017-10-23T07:03:00.925Z,15.03
2017-10-23T07:05:29.792Z,17.03
2017-10-23T07:07:58.687Z,15.53
2017-10-23T07:10:27.604Z,13.97
2017-10-23T07:12:56.473Z,15.67
2017-10-23T07:15:25.351Z,16.80
2017-10-23T07:17:54.212Z,17.80
2017-10-23T07:20:23.090Z,16.00
2017-10-23T07:22:51.947Z,16.13
2017-10-23T07:25:20.820Z,17.07
2017-10-23T07:27:49.679Z,17.00
2017-10-23T07:30:18.555Z,17.53
2017-10-23T07:32:47.416Z,15.43
2017-10-23T07:35:16.291Z,18.07
2017-10-23T07:37:45.148Z,15.47
2017-10-23T07:40:14.032Z,15.87
2017-10-23T07:42:42.888Z,15.77
2017-10-23T07:45:11.785Z,17.67
2017-10-23T07:47:40.652Z,16.30
2017-10-23T07:50:09.519Z,18.97
2017-10-23T07:52:38.405Z,16.07
2017-10-23T07:55:07.284Z,17.80
2017-10-23T07:57:36.170Z,15.00
2017-10-23T08:00:05.038Z,16.70
2017-10-23T08:02:33.920Z,16.80
2017-10-23T08:05:02.777Z,14.30
2017-10-23T08:07:31.665Z,16.20
2017-10-23T08:10:00.533Z,14.67
2017-10-23T08:12:29.418Z,15.70
2017-10-23T08:14:58.289Z,16.17
2017-10-23T08:17:27.201Z,17.27
2017-10-23T08:19:56.061Z,14.30
2017-10-23T08:22:24.953Z,14.10
2017-10-23T08:24:53.814Z,14.10
2017-10-23T08:27:22.690Z,16.23
2017-10-23T08:29:51.565Z,14.07
2017-10-23T08:32:20.452Z,16.37
2017-10-23T08:34:49.323Z,14.83
2017-10-23T08:37:18.211Z,14.73
2017-10-23T08:39:47.078Z,14.90
2017-10-23T08:42:15.960Z,14.60
2017-10-23T08:44:44.848Z,14.37
2017-10-23T08:47:13.903Z,13.80
2017-10-23T08:49:42.770Z,16.73
2017-10-23T08:52:11.629Z,13.70
2017-10-23T08:54:40.511Z,14.40
2017-10-23T08:57:09.375Z,16.77
2017-10-23T08:59:38.252Z,16.27
2017-10-23T09:02:07.112Z,16.97
2017-10-23T09:04:35.991Z,15.57
2017-10-23T09:07:04.861Z,16.17
2017-10-23T09:09:33.735Z,15.77
2017-10-23T09:12:02.593Z,15.70
2017-10-23T09:14:31.464Z,17.90
2017-10-23T09:17:00.327Z,14.63
2017-10-23T09:19:29.204Z,15.00
2017-10-23T09:21:58.066Z,14.33
2017-10-23T09:24:26.944Z,14.37
2017-10-23T09:26:55.811Z,18.77
2017-10-23T09:29:24.747Z,15.60
2017-10-23T09:31:53.603Z,16.87
2017-10-23T09:34:22.468Z,14.23
2017-10-23T09:36:51.344Z,12.33
2017-10-23T09:39:20.209Z,11.70
2017-10-23T09:41:49.092Z,10.93
2017-10-23T09:44:17.954Z,12.87
2017-10-23T09:46:46.836Z,12.53
2017-10-23T09:49:15.712Z,14.07
2017-10-23T09:51:44.591Z,12.03
2017-10-23T09:54:13.447Z,13.30
2017-10-23T09:56:42.313Z,9.63
2017-10-23T09:59:11.172Z,9.70
2017-10-23T10:01:40.044Z,10.63
2017-10-23T10:04:08.904Z,11.23
2017-10-23T10:06:37.781Z,10.67
2017-10-23T10:09:06.631Z,9.27
2017-10-23T10:11:35.510Z,10.17
2017-10-23T10:14:04.371Z,7.60
2017-10-23T10:16:33.238Z,8.83
2017-10-23T10:19:02.088Z,7.60
2017-10-23T10:21:30.959Z,9.33
2017-10-23T10:23:59.811Z,8.30
2017-10-23T10:26:28.711Z,7.63
2017-10-23T10:28:57.568Z,7.47
2017-10-23T10:31:26.427Z,10.63
2017-10-23T10:33:55.295Z,9.57
2017-10-23T10:36:24.163Z,8.23
2017-10-23T10:38:53.039Z,8.73
2017-10-23T10:41:21.896Z,8.40
2017-10-23T10:43:50.770Z,7.43
2017-10-23T10:46:19.639Z,7.40
2017-10-23T10:48:48.508Z,6.70
2017-10-23T10:51:17.367Z,5.93
2017-10-23T10:53:46.238Z,6.20
2017-10-23T10:56:15.091Z,6.20
2017-10-23T10:58:43.960Z,5.50
2017-10-23T11:01:12.824Z,5.10
2017-10-23T11:03:41.691Z,6.53
2017-10-23T11:06:10.544Z,5.77
2017-10-23T11:08:39.442Z,7.43
2017-10-23T11:11:08.424Z,4.30
2017-10-23T11:13:37.293Z,4.80
2017-10-23T11:16:06.165Z,4.83
2017-10-23T11:18:35.012Z,6.07
2017-10-23T11:21:03.875Z,5.67
2017-10-23T11:23:32.731Z,5.13
2017-10-23T11:26:01.604Z,4.73
2017-10-23T11:28:30.463Z,4.60
2017-10-23T11:30:59.349Z,4.80
2017-10-23T11:33:28.320Z,4.90
2017-10-23T11:35:57.202Z,4.90
2017-10-23T11:38:26.068Z,4.33
2017-10-23T11:40:54.950Z,5.07
2017-10-23T11:43:23.813Z,5.00
2017-10-23T11:45:52.685Z,5.47
2017-10-23T11:48:21.542Z,5.23
2017-10-23T11:50:50.421Z,10.23
2017-10-23T11:53:19.284Z,5.90
2017-10-23T11:55:48.156Z,4.60
2017-10-23T11:58:17.011Z,8.00
2017-10-23T12:00:45.869Z,6.40
2017-10-23T12:03:14.745Z,5.70
2017-10-23T12:05:43.607Z,8.00
2017-10-23T12:08:12.476Z,7.07
2017-10-23T12:10:41.335Z,9.50
2017-10-23T12:13:10.212Z,7.50
2017-10-23T12:15:39.068Z,6.43
2017-10-23T12:18:07.961Z,6.93
2017-10-23T12:20:36.826Z,7.57
2017-10-23T12:23:05.698Z,7.10
2017-10-23T12:25:34.562Z,7.37
2017-10-23T12:28:03.433Z,6.50
2017-10-23T12:30:32.291Z,7.57
2017-10-23T12:33:01.160Z,7.07
2017-10-23T12:35:30.007Z,8.00
2017-10-23T12:37:58.894Z,7.47
2017-10-23T12:40:27.748Z,9.10
2017-10-23T12:42:56.623Z,8.93
2017-10-23T12:45:25.476Z,9.90
2017-10-23T12:47:54.346Z,10.80
2017-10-23T12:50:23.199Z,9.60
2017-10-23T12:52:52.096Z,11.53
2017-10-23T12:55:20.942Z,10.87
2017-10-23T12:57:49.800Z,11.40
2017-10-23T13:00:18.678Z,13.60
2017-10-23T13:02:47.544Z,12.23
2017-10-23T13:05:16.418Z,14.30
2017-10-23T13:07:45.283Z,13.30
2017-10-23T13:10:14.165Z,12.10
2017-10-23T13:12:43.028Z,16.50
2017-10-23T13:15:11.904Z,13.53
2017-10-23T13:17:40.773Z,15.70
2017-10-23T13:20:09.647Z,14.43
2017-10-23T13:22:38.512Z,16.30
2017-10-23T13:25:07.385Z,14.87
2017-10-23T13:27:36.239Z,14.73
2017-10-23T13:30:05.111Z,15.03
2017-10-23T13:32:33.968Z,17.83
2017-10-23T13:35:02.840Z,16.67
2017-10-23T13:37:31.701Z,14.90
2017-10-23T13:40:00.575Z,14.87
2017-10-23T13:42:29.441Z,15.60
2017-10-23T13:44:58.321Z,16.33
2017-10-23T13:47:27.182Z,14.80
2017-10-23T13:49:56.061Z,16.83
2017-10-23T13:52:24.915Z,13.50
2017-10-23T13:54:53.788Z,15.10
2017-10-23T13:57:22.653Z,15.90
2017-10-23T13:59:51.547Z,15.93
2017-10-23T14:02:20.408Z,17.03
2017-10-23T14:04:49.265Z,17.70
2017-10-23T14:07:18.139Z,16.50
2017-10-23T14:09:47.003Z,15.50
2017-10-23T14:12:15.880Z,15.43
2017-10-23T14:14:44.749Z,16.23
2017-10-23T14:17:13.623Z,14.97
2017-10-23T14:19:42.488Z,15.47
2017-10-23T14:22:11.375Z,14.57
2017-10-23T14:24:40.239Z,16.30
2017-10-23T14:27:09.115Z,15.80
2017-10-23T14:29:37.971Z,15.70
2017-10-23T14:32:06.847Z,16.10
2017-10-23T14:34:35.704Z,16.90
2017-10-23T14:37:04.579Z,16.27
2017-10-23T14:39:33.440Z,15.60
2017-10-23T14:42:02.321Z,15.30
2017-10-23T14:44:31.191Z,17.03
2017-10-23T14:47:00.064Z,18.20
2017-10-23T14:49:28.924Z,16.40
2017-10-23T14:51:57.805Z,15.67
2017-10-23T14:54:26.666Z,15.80
2017-10-23T14:56:55.568Z,14.13
2017-10-23T14:59:24.423Z,16.80
2017-10-23T15:01:53.286Z,14.63
2017-10-23T15:04:22.163Z,14.80
2017-10-23T15:06:51.025Z,17.60
2017-10-23T15:09:19.900Z,19.80
2017-10-23T15:11:48.763Z,15.47
2017-10-23T15:14:17.648Z,14.37
2017-10-23T15:16:46.512Z,18.50
2017-10-23T15:19:15.391Z,16.03
2017-10-23T15:21:44.257Z,16.87
2017-10-23T15:24:13.128Z,16.53
2017-10-23T15:26:41.989Z,14.80
2017-10-23T15:29:10.880Z,16.70
2017-10-23T15:31:39.769Z,16.47
2017-10-23T15:34:08.648Z,17.13
2017-10-23T15:36:37.525Z,17.93
2017-10-23T15:39:06.415Z,15.07
2017-10-23T15:41:35.284Z,14.93
2017-10-23T15:44:04.165Z,14.93
2017-10-23T15:46:33.027Z,17.00
2017-10-23T15:49:01.949Z,18.67
2017-10-23T15:51:30.816Z,15.20
2017-10-23T15:53:59.688Z,15.40
2017-10-23T15:56:28.572Z,18.23
2017-10-23T15:58:57.450Z,18.03
2017-10-23T16:01:26.320Z,16.57
2017-10-23T16:03:55.176Z,15.37
2017-10-23T16:06:24.043Z,15.80
2017-10-23T16:08:52.901Z,17.07
2017-10-23T16:11:21.783Z,16.40
2017-10-23T16:13:50.639Z,18.03
2017-10-23T16:16:19.515Z,17.00
2017-10-23T16:18:48.381Z,17.30
2017-10-23T16:21:17.277Z,16.67
2017-10-23T16:23:46.136Z,17.73
2017-10-23T16:26:15.009Z,17.50
2017-10-23T16:28:43.869Z,19.50
2017-10-23T16:31:12.768Z,16.63
2017-10-23T16:33:41.632Z,16.97
2017-10-23T16:36:10.496Z,16.53
2017-10-23T16:38:39.371Z,16.07
2017-10-23T16:41:08.228Z,17.77
2017-10-23T16:43:37.108Z,20.43
2017-10-23T16:46:05.972Z,17.30
2017-10-23T16:48:34.855Z,17.73
2017-10-23T16:51:03.707Z,18.50
2017-10-23T16:53:32.575Z,17.03
2017-10-23T16:56:01.435Z,19.30
2017-10-23T16:58:30.309Z,18.47
2017-10-23T17:00:59.168Z,17.07
2017-10-23T17:03:28.048Z,16.10
2017-10-23T17:05:56.916Z,17.20
2017-10-23T17:08:25.792Z,18.10
2017-10-23T17:10:54.652Z,17.80
2017-10-23T17:13:23.525Z,18.07
2017-10-23T17:15:52.388Z,17.70
2017-10-23T17:18:21.278Z,16.20
2017-10-23T17:20:50.148Z,17.07
2017-10-23T17:23:19.039Z,19.47
2017-10-23T17:25:47.904Z,17.23
2017-10-23T17:28:16.763Z,19.03
2017-10-23T17:30:45.636Z,18.80
2017-10-23T17:33:14.492Z,17.53
2017-10-23T17:35:43.363Z,18.63
2017-10-23T17:38:12.242Z,18.57
2017-10-23T17:40:41.136Z,20.50
2017-10-23T17:43:09.999Z,22.07
2017-10-23T17:45:38.871Z,17.17
2017-10-23T17:48:08.974Z,16.83
2017-10-23T17:50:37.856Z,21.83
2017-10-23T17:53:06.729Z,20.77
2017-10-23T17:55:35.609Z,19.57
2017-10-23T17:58:04.517Z,21.20
2017-10-23T18:00:33.404Z,28.97
2017-10-23T18:03:02.289Z,25.00
2017-10-23T18:05:31.171Z,19.90
2017-10-23T18:08:00.031Z,20.63
2017-10-23T18:10:28.950Z,33.27
2017-10-23T18:12:57.837Z,27.57
2017-10-23T18:15:26.699Z,21.97
2017-10-23T18:17:55.578Z,22.57
2017-10-23T18:20:24.447Z,23.33
2017-10-23T18:22:53.326Z,22.17
2017-10-23T18:25:22.197Z,19.37
2017-10-23T18:27:51.104Z,21.83
2017-10-23T18:30:19.982Z,19.53
2017-10-23T18:32:48.868Z,24.03
2017-10-23T18:35:17.747Z,22.83
2017-10-23T18:37:46.726Z,20.20
2017-10-23T18:40:15.627Z,20.87
2017-10-23T18:42:44.512Z,18.43
2017-10-23T18:45:13.379Z,19.30
2017-10-23T18:47:42.291Z,20.00
2017-10-23T18:50:11.154Z,19.37
2017-10-23T18:52:40.020Z,20.43
2017-10-23T18:55:08.908Z,22.60
2017-10-23T18:57:37.775Z,24.43
2017-10-23T19:00:06.740Z,21.93
2017-10-23T19:02:35.599Z,20.80
2017-10-23T19:05:04.472Z,22.27
2017-10-23T19:07:33.359Z,27.17
2017-10-23T19:10:02.236Z,23.00
2017-10-23T19:12:31.108Z,23.07
2017-10-23T19:14:59.994Z,22.20
2017-10-23T19:17:28.860Z,23.20
2017-10-23T19:19:57.741Z,22.13
2017-10-23T19:22:26.602Z,22.03
2017-10-23T19:24:55.510Z,22.10
2017-10-23T19:27:24.367Z,24.80
2017-10-23T19:29:53.224Z,23.90
2017-10-23T19:32:22.124Z,23.07
2017-10-23T19:34:51.007Z,20.60
2017-10-23T19:37:19.893Z,20.50
2017-10-23T19:39:48.753Z,21.37
2017-10-23T19:42:17.635Z,22.13
2017-10-23T19:44:46.508Z,23.30
2017-10-23T19:47:15.383Z,22.00
2017-10-23T19:49:44.250Z,21.97
2017-10-23T19:52:13.128Z,23.53
2017-10-23T19:54:42.020Z,23.80
2017-10-23T19:57:10.943Z,24.93
2017-10-23T19:59:39.817Z,21.30
2017-10-23T20:02:08.704Z,22.00
2017-10-23T20:04:37.581Z,21.20
2017-10-23T20:07:06.455Z,19.80
2017-10-23T20:09:35.317Z,21.87
2017-10-23T20:12:04.196Z,21.20
2017-10-23T20:14:33.055Z,19.97
2017-10-23T20:17:01.959Z,20.77
2017-10-23T20:19:30.820Z,19.20
2017-10-23T20:21:59.681Z,21.30
2017-10-23T20:24:28.559Z,20.37
2017-10-23T20:26:57.439Z,19.97
2017-10-23T20:29:26.316Z,20.03
2017-10-23T20:31:55.176Z,20.33
2017-10-23T20:34:24.056Z,19.40
2017-10-23T20:36:52.911Z,20.30
2017-10-23T20:39:21.783Z,21.13
2017-10-23T20:41:50.636Z,23.40
2017-10-23T20:44:19.519Z,22.73
2017-10-23T20:46:48.508Z,21.90
2017-10-23T20:49:17.383Z,21.70
2017-10-23T20:51:46.248Z,24.90
2017-10-23T20:54:15.148Z,23.80
2017-10-23T20:56:44.005Z,22.60
2017-10-23T20:59:12.869Z,32.57
2017-10-23T21:01:41.747Z,27.80
2017-10-23T21:04:10.603Z,24.40
2017-10-23T21:06:39.480Z,24.60
2017-10-23T21:09:08.350Z,25.20
2017-10-23T21:11:37.228Z,25.83
2017-10-23T21:14:06.092Z,22.87
2017-10-23T21:16:34.968Z,36.33
2017-10-23T21:19:03.829Z,23.33
2017-10-23T21:21:32.704Z,24.20
2017-10-23T21:24:01.575Z,26.20
2017-10-23T21:26:30.460Z,21.83
2017-10-23T21:29:00.136Z,26.37
2017-10-23T21:31:29.019Z,25.87
2017-10-23T21:33:57.880Z,23.93
2017-10-23T21:36:26.735Z,26.70
2017-10-23T21:38:55.611Z,29.63
2017-10-23T21:41:24.474Z,23.83
2017-10-23T21:43:53.360Z,27.40
2017-10-23T21:46:28.112Z,25.17
2017-10-23T21:48:56.992Z,28.17
2017-10-23T21:51:25.854Z,25.63
2017-10-23T21:53:54.735Z,27.43
2017-10-23T21:56:23.599Z,25.73
2017-10-23T21:58:52.472Z,26.60
2017-10-23T22:01:21.331Z,22.50
2017-10-23T22:03:50.215Z,26.87
2017-10-23T22:06:19.068Z,25.93
2017-10-23T22:08:47.943Z,25.87
2017-10-23T22:11:16.799Z,25.10
2017-10-23T22:13:45.675Z,23.97
2017-10-23T22:16:14.528Z,27.07
2017-10-23T22:18:43.402Z,25.93
2017-10-23T22:21:12.269Z,26.10
2017-10-23T22:23:41.124Z,31.33
2017-10-23T22:26:10.004Z,27.60
2017-10-23T22:28:38.869Z,25.63
2017-10-23T22:31:07.760Z,27.10
2017-10-23T22:33:36.611Z,24.63
2017-10-23T22:36:05.483Z,26.20
2017-10-23T22:38:34.341Z,25.37
2017-10-23T22:41:03.231Z,24.50
2017-10-23T22:43:32.086Z,26.77
2017-10-23T22:46:00.960Z,25.57
2017-10-23T22:48:29.824Z,26.67
2017-10-23T22:50:58.703Z,26.40
2017-10-23T22:53:27.568Z,23.47
2017-10-23T22:55:56.480Z,28.60
2017-10-23T22:58:25.348Z,22.50
2017-10-23T23:00:54.212Z,24.53
2017-10-23T23:03:23.091Z,27.07
2017-10-23T23:05:51.947Z,26.47
2017-10-23T23:08:20.823Z,25.93
2017-10-23T23:10:49.680Z,23.13
2017-10-23T23:13:18.568Z,25.83
2017-10-23T23:15:47.432Z,23.70
2017-10-23T23:18:16.308Z,24.07
2017-10-23T23:20:45.172Z,21.40
2017-10-23T23:23:14.052Z,24.00
2017-10-23T23:25:42.907Z,23.00
2017-10-23T23:28:11.783Z,21.90
2017-10-23T23:30:40.646Z,22.10
2017-10-23T23:33:09.535Z,23.93
2017-10-23T23:35:38.393Z,22.77
2017-10-23T23:38:07.274Z,21.67
2017-10-23T23:40:36.144Z,23.40
2017-10-23T23:43:05.005Z,20.40
2017-10-23T23:45:33.874Z,23.03
2017-10-23T23:48:02.735Z,24.83
2017-10-23T23:50:31.607Z,23.77
2017-10-23T23:53:00.459Z,25.10
2017-10-23T23:55:29.340Z,24.10
2017-10-23T23:57:58.192Z,24.20
